CheckWX is a tool to help pilots better visualize weather data.  It is not intended as a substitute for an official pre-flight weather briefing.

23:43:59 UTC

KLIT METAR
Bill and Hillary Clinton National / Adams Field Airport
Little Rock, Arkansas, USA
Current

51 mins ago

KLIT 222253Z 02009KT 10SM OVC008 08/06 A3002 RMK AO2 SLP167 T00780061
Observed
Nov-22 @ 22:53 UTC
Wind
  • 020° at 9 KTS
Visibility
10 SM
Flight Rules
IFR
Cloud Levels
  • Overcast at 800' AGL
Temperature
C / 46°F
Dewpoint
C / 43°F
Humidity
87%
Altimeter
30.02" Hg
Pressure
1016.62 hPa
Previous

2 hours ago

KLIT 222153Z 02005KT 10SM OVC008 08/07 A3001 RMK AO2 RAE44 SLP164 P0000 T00780067
Observed
Nov-22 @ 21:53 UTC
Wind
  • 020° at 5 KTS
Visibility
10 SM
Flight Rules
IFR
Cloud Levels
  • Overcast at 800' AGL
Temperature
C / 46°F
Dewpoint
C / 45°F
Humidity
93%
Altimeter
30.01" Hg
Pressure
1016.22 hPa
Current Rain
0.01"
Previous

3 hours ago

KLIT 222053Z 04009KT 10SM -RA OVC006 08/07 A2999 RMK AO2 SLP159 P0001 60003 T00780067 56027
Observed
Nov-22 @ 20:53 UTC
Wind
  • 040° at 9 KTS
Visibility
10 SM
Flight Rules
IFR
Conditions
Light Rain
Cloud Levels
  • Overcast at 600' AGL
Temperature
C / 46°F
Dewpoint
C / 45°F
Humidity
93%
Altimeter
29.99" Hg
Pressure
1015.62 hPa
Current Rain
0.01"